Terminal Aerodrome Forecast
Issued by NWS

Home | Current Version | Previous Version | Text Only | Print | Product List | Glossary On
Versions: 1 2 3 4 5 6 7 8 9 10 11 12
000
FTUS45 KPIH 281700
TAFSUN
TAF
KSUN 281720Z 2818/2918 24009KT P6SM SCT040 BKN150
     FM290200 30006KT P6SM SCT020 BKN100
     FM291000 32009KT P6SM VCSH OVC035=

USA.gov is the U.S. government's official web portal to all federal, state and local government web resources and services.